createdAt,value
2018-09-21T00:04:17.631Z,91.50
2018-09-21T00:09:20.767Z,91.50
2018-09-21T00:14:23.887Z,91.60
2018-09-21T00:19:27.012Z,92.20
2018-09-21T00:24:30.153Z,92.00
2018-09-21T00:29:33.259Z,91.60
2018-09-21T00:34:36.367Z,91.90
2018-09-21T00:39:46.228Z,92.10
2018-09-21T00:44:49.335Z,91.60
2018-09-21T00:49:52.525Z,92.20
2018-09-21T00:54:55.631Z,92.00
2018-09-21T00:59:58.795Z,92.10
2018-09-21T01:05:01.983Z,92.30
2018-09-21T01:10:05.187Z,91.20
2018-09-21T01:15:08.300Z,92.50
2018-09-21T01:20:11.403Z,92.10
2018-09-21T01:25:14.540Z,92.00
2018-09-21T01:30:17.703Z,92.70
2018-09-21T01:35:20.815Z,92.20
2018-09-21T01:40:23.933Z,92.70
2018-09-21T01:45:27.103Z,92.80
2018-09-21T01:50:30.234Z,93.20
2018-09-21T01:55:33.316Z,93.10
2018-09-21T02:00:36.422Z,92.70
2018-09-21T02:05:39.534Z,93.20
2018-09-21T02:10:42.648Z,92.90
2018-09-21T02:15:45.781Z,93.10
2018-09-21T02:20:48.885Z,93.30
2018-09-21T02:25:52.011Z,93.30
2018-09-21T02:30:55.118Z,93.30
2018-09-21T02:35:58.243Z,93.20
2018-09-21T02:41:01.372Z,93.10
2018-09-21T02:46:04.489Z,93.10
2018-09-21T02:51:07.614Z,93.30
2018-09-21T02:56:10.732Z,93.50
2018-09-21T03:01:13.830Z,93.40
2018-09-21T03:06:16.946Z,93.60
2018-09-21T03:11:20.060Z,93.70
2018-09-21T03:16:23.169Z,93.70
2018-09-21T03:21:26.277Z,94.30
2018-09-21T03:26:29.389Z,94.20
2018-09-21T03:31:32.488Z,94.50
2018-09-21T03:36:35.573Z,94.30
2018-09-21T03:41:38.938Z,94.20
2018-09-21T03:46:42.133Z,94.60
2018-09-21T03:51:45.244Z,94.90
2018-09-21T03:56:48.361Z,94.80
2018-09-21T04:01:51.462Z,94.90
2018-09-21T04:06:54.568Z,94.90
2018-09-21T04:11:58.789Z,95.40
2018-09-21T04:17:01.895Z,95.40
2018-09-21T04:22:05.059Z,95.90
2018-09-21T04:27:08.178Z,96.10
2018-09-21T04:32:11.281Z,96.10
2018-09-21T04:37:14.413Z,96.40
2018-09-21T04:42:17.785Z,96.50
2018-09-21T04:47:20.928Z,96.90
2018-09-21T04:52:24.056Z,97.00
2018-09-21T04:57:27.189Z,97.10
2018-09-21T05:02:30.330Z,97.40
2018-09-21T05:07:33.444Z,97.30
2018-09-21T05:12:36.609Z,97.70
2018-09-21T05:17:39.719Z,97.30
2018-09-21T05:22:42.813Z,97.30
2018-09-21T05:27:45.930Z,97.60
2018-09-21T05:32:49.046Z,98.30
2018-09-21T05:37:52.182Z,98.50
2018-09-21T05:42:55.281Z,99.30
2018-09-21T05:47:58.455Z,98.70
2018-09-21T05:53:01.568Z,99.40
2018-09-21T05:58:04.716Z,99.00
2018-09-21T06:03:07.821Z,98.90
2018-09-21T06:08:10.927Z,99.90
2018-09-21T06:13:14.046Z,99.90
2018-09-21T06:18:17.415Z,99.30
2018-09-21T06:23:20.521Z,99.10
2018-09-21T06:28:23.665Z,99.50
2018-09-21T06:33:26.769Z,99.30
2018-09-21T06:38:29.894Z,99.90
2018-09-21T06:43:33.033Z,98.90
2018-09-21T06:48:36.153Z,98.80
2018-09-21T06:53:39.245Z,98.40
2018-09-21T06:58:42.348Z,98.30
2018-09-21T07:03:45.438Z,98.10
2018-09-21T07:08:48.681Z,98.00
2018-09-21T07:13:52.055Z,98.00
2018-09-21T07:18:55.193Z,97.50
2018-09-21T07:23:58.314Z,97.10
2018-09-21T07:29:01.482Z,97.20
2018-09-21T07:34:04.594Z,96.70
2018-09-21T07:39:08.165Z,96.30
2018-09-21T07:44:11.273Z,95.70
2018-09-21T07:49:14.357Z,95.70
2018-09-21T07:54:17.538Z,95.20
2018-09-21T07:59:20.652Z,94.80
2018-09-21T08:04:23.739Z,94.40
2018-09-21T08:09:26.816Z,93.40
2018-09-21T08:14:29.973Z,93.00
2018-09-21T08:19:33.155Z,92.10
2018-09-21T08:24:36.225Z,91.60
2018-09-21T08:29:39.324Z,91.60
2018-09-21T08:34:42.639Z,90.50
2018-09-21T08:39:46.188Z,90.20
2018-09-21T08:44:49.313Z,90.20
2018-09-21T08:49:52.428Z,89.60
2018-09-21T08:54:55.554Z,88.40
2018-09-21T08:59:58.684Z,86.60
2018-09-21T09:05:01.813Z,84.30
2018-09-21T09:10:04.943Z,83.10
2018-09-21T09:15:08.088Z,81.00
2018-09-21T09:20:11.233Z,80.00
2018-09-21T09:25:14.376Z,78.00
2018-09-21T09:30:17.485Z,74.70
2018-09-21T09:35:20.633Z,73.40
2018-09-21T09:40:23.737Z,73.40
2018-09-21T09:45:26.820Z,72.10
2018-09-21T09:50:29.959Z,68.00
2018-09-21T09:55:33.062Z,67.90
2018-09-21T10:00:40.402Z,66.60
2018-09-21T10:05:44.379Z,62.30
2018-09-21T10:10:47.488Z,62.00
2018-09-21T10:15:50.593Z,61.50
2018-09-21T10:20:53.701Z,60.20
2018-09-21T10:25:58.409Z,59.30
2018-09-21T10:31:01.508Z,59.10
2018-09-21T10:36:04.629Z,59.70
2018-09-21T10:41:07.726Z,58.50
2018-09-21T10:46:10.864Z,58.60
2018-09-21T10:51:13.960Z,58.10
2018-09-21T10:56:17.162Z,57.30
2018-09-21T11:01:20.372Z,56.00
2018-09-21T11:06:23.472Z,57.20
2018-09-21T11:11:26.611Z,55.40
2018-09-21T11:16:29.820Z,55.50
2018-09-21T11:21:32.956Z,55.40
2018-09-21T11:26:36.092Z,53.50
2018-09-21T11:31:39.237Z,53.60
2018-09-21T11:36:42.344Z,53.50
2018-09-21T11:41:45.465Z,55.40
2018-09-21T11:46:48.638Z,53.80
2018-09-21T11:51:51.708Z,53.80
2018-09-21T11:56:54.835Z,54.60
2018-09-21T12:01:57.989Z,53.50
2018-09-21T12:07:01.223Z,53.90
2018-09-21T12:12:04.312Z,52.40
2018-09-21T12:17:07.460Z,52.50
2018-09-21T12:22:10.558Z,53.30
2018-09-21T12:27:13.637Z,52.50
2018-09-21T12:32:16.793Z,53.50
2018-09-21T12:37:19.998Z,53.30
2018-09-21T12:42:23.169Z,52.80
2018-09-21T12:52:54.045Z,52.70
2018-09-21T12:57:57.218Z,53.30
2018-09-21T13:03:00.300Z,52.20
2018-09-21T13:08:03.435Z,50.70
2018-09-21T13:13:06.699Z,49.60
2018-09-21T13:18:09.822Z,49.80
2018-09-21T13:23:12.928Z,50.90
2018-09-21T13:28:16.016Z,50.50
2018-09-21T13:33:19.105Z,49.70
2018-09-21T13:38:22.181Z,48.20
2018-09-21T13:43:25.254Z,48.30
2018-09-21T13:48:28.368Z,48.50
2018-09-21T13:53:31.460Z,49.00
2018-09-21T13:58:34.572Z,48.70
2018-09-21T14:03:37.685Z,49.70
2018-09-21T14:08:40.760Z,49.80
2018-09-21T14:13:43.870Z,50.00
2018-09-21T14:18:46.980Z,51.10
2018-09-21T14:23:50.121Z,51.70
2018-09-21T14:28:53.267Z,52.00
2018-09-21T14:33:56.382Z,57.40
2018-09-21T14:38:59.543Z,66.60
2018-09-21T14:44:02.663Z,72.40
2018-09-21T14:49:05.766Z,78.10
2018-09-21T14:54:09.039Z,82.10
2018-09-21T14:59:12.268Z,83.60
2018-09-21T15:04:15.453Z,83.60
2018-09-21T15:09:18.760Z,86.60
2018-09-21T15:14:21.880Z,90.40
2018-09-21T15:19:25.204Z,92.00
2018-09-21T15:24:28.346Z,93.00
2018-09-21T15:29:31.555Z,94.60
2018-09-21T15:34:34.721Z,95.60
2018-09-21T15:39:37.821Z,95.20
2018-09-21T15:44:40.900Z,96.30
2018-09-21T15:49:43.983Z,97.20
2018-09-21T15:54:47.085Z,97.30
2018-09-21T15:59:50.268Z,96.90
2018-09-21T16:04:53.380Z,96.80
2018-09-21T16:09:56.702Z,97.10
2018-09-21T16:14:59.810Z,95.80
2018-09-21T16:20:03.848Z,95.90
2018-09-21T16:25:06.967Z,96.50
2018-09-21T16:30:10.348Z,98.40
2018-09-21T16:35:13.443Z,96.60
2018-09-21T16:40:16.533Z,96.90
2018-09-21T16:45:19.647Z,97.80
2018-09-21T16:50:22.753Z,96.90
2018-09-21T16:55:25.881Z,96.60
2018-09-21T17:00:28.979Z,97.70
2018-09-21T17:05:32.086Z,98.80
2018-09-21T17:10:35.171Z,97.40
2018-09-21T17:15:38.279Z,97.30
2018-09-21T17:20:41.385Z,97.60
2018-09-21T17:25:44.570Z,98.20
2018-09-21T17:30:48.400Z,99.70
2018-09-21T17:35:51.506Z,99.40
2018-09-21T17:40:54.601Z,98.10
2018-09-21T17:45:57.760Z,98.10
2018-09-21T17:51:00.893Z,98.50
2018-09-21T17:56:04.722Z,99.30
2018-09-21T18:01:07.895Z,99.00
2018-09-21T18:11:15.236Z,99.50
2018-09-21T18:16:18.441Z,99.90
2018-09-21T18:21:21.559Z,99.90
2018-09-21T18:26:24.662Z,99.90
2018-09-21T18:31:28.492Z,99.90
2018-09-21T18:36:32.365Z,99.90
2018-09-21T18:41:36.343Z,99.90
2018-09-21T18:46:40.168Z,99.90
2018-09-21T18:51:43.471Z,99.90
2018-09-21T18:56:46.771Z,99.90
2018-09-21T19:01:50.592Z,99.90
2018-09-21T19:06:53.792Z,99.90
2018-09-21T19:11:57.439Z,99.90
2018-09-21T19:17:03.908Z,99.90
2018-09-21T19:22:07.172Z,99.90
2018-09-21T19:27:10.878Z,99.90
2018-09-21T19:32:14.115Z,99.90
2018-09-21T19:37:17.369Z,99.90
2018-09-21T19:42:21.203Z,99.90
2018-09-21T19:47:25.113Z,99.90
2018-09-21T19:52:28.450Z,99.90
2018-09-21T19:57:32.267Z,99.90
2018-09-21T20:02:35.903Z,99.90
2018-09-21T20:07:39.418Z,99.90
2018-09-21T20:12:43.374Z,99.90
2018-09-21T20:17:46.723Z,99.90
2018-09-21T20:22:50.062Z,99.90
2018-09-21T20:27:53.702Z,99.90
2018-09-21T20:33:02.394Z,99.90
2018-09-21T20:38:05.656Z,99.90
2018-09-21T20:43:08.931Z,99.90
2018-09-21T20:48:12.121Z,99.90
2018-09-21T20:53:15.290Z,99.70
2018-09-21T20:58:18.561Z,99.40
2018-09-21T21:03:21.847Z,99.40
2018-09-21T21:08:25.105Z,99.50
2018-09-21T21:13:28.299Z,99.90
2018-09-21T21:18:31.519Z,99.90
2018-09-21T21:23:34.742Z,99.90
2018-09-21T21:28:38.114Z,99.90
2018-09-21T21:33:41.479Z,99.90
2018-09-21T21:38:44.773Z,99.90
2018-09-21T21:43:48.374Z,99.90
2018-09-21T21:48:51.647Z,99.90
2018-09-21T21:53:54.977Z,99.90
2018-09-21T21:58:58.279Z,99.90
2018-09-21T22:04:01.749Z,99.90
2018-09-21T22:09:07.408Z,99.90
2018-09-21T22:14:11.217Z,99.90
2018-09-21T22:19:14.692Z,99.90
2018-09-21T22:24:18.027Z,99.90
2018-09-21T22:29:21.427Z,99.90
2018-09-21T22:34:24.797Z,99.90
2018-09-21T22:39:28.498Z,99.90
2018-09-21T22:44:31.972Z,99.90
2018-09-21T22:49:35.514Z,99.90
2018-09-21T22:54:39.214Z,99.90
2018-09-21T22:59:42.466Z,99.90
2018-09-21T23:04:45.835Z,99.90
2018-09-21T23:09:49.441Z,99.90
2018-09-21T23:14:53.178Z,99.90
2018-09-21T23:19:56.529Z,99.90
2018-09-21T23:25:02.391Z,99.90
2018-09-21T23:30:05.922Z,99.60
